sensor_id;sensor_type;location;lat;lon;timestamp;P1;durP1;ratioP1;P2;durP2;ratioP2
22030;SDS011;11179;52.106;21.024;2023-02-07T00:01:06;118.40;;;60.67;;
22030;SDS011;11179;52.106;21.024;2023-02-07T00:03:33;130.65;;;62.95;;
22030;SDS011;11179;52.106;21.024;2023-02-07T00:06:09;124.30;;;58.37;;
22030;SDS011;11179;52.106;21.024;2023-02-07T00:08:37;123.40;;;58.60;;
22030;SDS011;11179;52.106;21.024;2023-02-07T00:11:04;122.07;;;58.75;;
22030;SDS011;11179;52.106;21.024;2023-02-07T00:13:31;126.22;;;62.05;;
22030;SDS011;11179;52.106;21.024;2023-02-07T00:15:56;121.67;;;60.17;;
22030;SDS011;11179;52.106;21.024;2023-02-07T00:18:23;126.07;;;59.88;;
22030;SDS011;11179;52.106;21.024;2023-02-07T00:21:02;121.70;;;58.60;;
22030;SDS011;11179;52.106;21.024;2023-02-07T00:23:28;120.43;;;59.05;;
22030;SDS011;11179;52.106;21.024;2023-02-07T00:25:53;123.27;;;58.33;;
22030;SDS011;11179;52.106;21.024;2023-02-07T00:28:18;119.50;;;58.93;;
22030;SDS011;11179;52.106;21.024;2023-02-07T00:30:45;116.27;;;56.00;;
22030;SDS011;11179;52.106;21.024;2023-02-07T00:33:10;121.85;;;57.97;;
22030;SDS011;11179;52.106;21.024;2023-02-07T00:35:36;116.37;;;56.70;;
22030;SDS011;11179;52.106;21.024;2023-02-07T00:38:01;118.60;;;56.70;;
22030;SDS011;11179;52.106;21.024;2023-02-07T00:40:27;117.20;;;58.10;;
22030;SDS011;11179;52.106;21.024;2023-02-07T00:42:52;116.17;;;56.17;;
22030;SDS011;11179;52.106;21.024;2023-02-07T00:45:17;115.63;;;56.70;;
22030;SDS011;11179;52.106;21.024;2023-02-07T00:47:42;124.27;;;56.37;;
22030;SDS011;11179;52.106;21.024;2023-02-07T00:50:08;126.87;;;59.50;;
22030;SDS011;11179;52.106;21.024;2023-02-07T00:52:33;116.67;;;53.93;;
22030;SDS011;11179;52.106;21.024;2023-02-07T00:54:58;117.30;;;55.87;;
22030;SDS011;11179;52.106;21.024;2023-02-07T00:57:24;115.73;;;55.67;;
22030;SDS011;11179;52.106;21.024;2023-02-07T00:59:49;122.63;;;57.00;;
22030;SDS011;11179;52.106;21.024;2023-02-07T01:02:14;127.93;;;57.90;;
22030;SDS011;11179;52.106;21.024;2023-02-07T01:04:40;107.77;;;54.93;;
22030;SDS011;11179;52.106;21.024;2023-02-07T01:07:05;116.43;;;54.83;;
22030;SDS011;11179;52.106;21.024;2023-02-07T01:09:30;107.60;;;54.13;;
22030;SDS011;11179;52.106;21.024;2023-02-07T01:11:56;124.40;;;55.00;;
22030;SDS011;11179;52.106;21.024;2023-02-07T01:14:21;107.30;;;51.60;;
22030;SDS011;11179;52.106;21.024;2023-02-07T01:16:46;111.10;;;53.60;;
22030;SDS011;11179;52.106;21.024;2023-02-07T01:19:13;117.82;;;56.63;;
22030;SDS011;11179;52.106;21.024;2023-02-07T01:21:38;121.47;;;54.87;;
22030;SDS011;11179;52.106;21.024;2023-02-07T01:24:04;108.10;;;54.33;;
22030;SDS011;11179;52.106;21.024;2023-02-07T01:26:30;115.18;;;55.17;;
22030;SDS011;11179;52.106;21.024;2023-02-07T01:28:55;116.77;;;54.90;;
22030;SDS011;11179;52.106;21.024;2023-02-07T01:31:21;122.73;;;59.50;;
22030;SDS011;11179;52.106;21.024;2023-02-07T01:33:51;117.00;;;56.25;;
22030;SDS011;11179;52.106;21.024;2023-02-07T01:36:18;113.38;;;54.17;;
22030;SDS011;11179;52.106;21.024;2023-02-07T01:38:43;114.60;;;54.07;;
22030;SDS011;11179;52.106;21.024;2023-02-07T01:41:08;121.27;;;54.60;;
22030;SDS011;11179;52.106;21.024;2023-02-07T01:43:34;115.13;;;55.37;;
22030;SDS011;11179;52.106;21.024;2023-02-07T01:46:16;118.53;;;57.78;;
22030;SDS011;11179;52.106;21.024;2023-02-07T01:48:41;122.97;;;56.27;;
22030;SDS011;11179;52.106;21.024;2023-02-07T01:51:06;124.10;;;56.80;;
22030;SDS011;11179;52.106;21.024;2023-02-07T01:53:32;119.90;;;56.90;;
22030;SDS011;11179;52.106;21.024;2023-02-07T01:56:02;111.28;;;54.25;;
22030;SDS011;11179;52.106;21.024;2023-02-07T01:58:30;128.57;;;58.58;;
22030;SDS011;11179;52.106;21.024;2023-02-07T02:00:57;123.60;;;59.05;;
22030;SDS011;11179;52.106;21.024;2023-02-07T02:03:25;123.75;;;59.08;;
22030;SDS011;11179;52.106;21.024;2023-02-07T02:05:51;123.07;;;57.90;;
22030;SDS011;11179;52.106;21.024;2023-02-07T02:08:18;125.20;;;58.67;;
22030;SDS011;11179;52.106;21.024;2023-02-07T02:13:27;118.50;;;57.63;;
22030;SDS011;11179;52.106;21.024;2023-02-07T02:16:19;116.78;;;56.58;;
22030;SDS011;11179;52.106;21.024;2023-02-07T02:22:00;119.00;;;57.75;;
22030;SDS011;11179;52.106;21.024;2023-02-07T02:27:59;114.88;;;56.72;;
22030;SDS011;11179;52.106;21.024;2023-02-07T02:35:36;122.30;;;55.00;;
22030;SDS011;11179;52.106;21.024;2023-02-07T02:41:10;104.60;;;53.85;;
22030;SDS011;11179;52.106;21.024;2023-02-07T02:43:46;113.95;;;56.00;;
22030;SDS011;11179;52.106;21.024;2023-02-07T02:46:19;113.32;;;54.65;;
22030;SDS011;11179;52.106;21.024;2023-02-07T02:48:47;112.70;;;54.75;;
22030;SDS011;11179;52.106;21.024;2023-02-07T02:51:14;106.47;;;54.47;;
22030;SDS011;11179;52.106;21.024;2023-02-07T02:53:39;108.87;;;54.10;;
22030;SDS011;11179;52.106;21.024;2023-02-07T02:56:28;107.80;;;52.60;;
22030;SDS011;11179;52.106;21.024;2023-02-07T03:12:42;102.43;;;51.45;;
22030;SDS011;11179;52.106;21.024;2023-02-07T03:18:11;107.60;;;52.60;;
22030;SDS011;11179;52.106;21.024;2023-02-07T03:20:44;121.93;;;52.00;;
22030;SDS011;11179;52.106;21.024;2023-02-07T03:23:15;103.30;;;50.35;;
22030;SDS011;11179;52.106;21.024;2023-02-07T03:25:42;101.47;;;49.00;;
22030;SDS011;11179;52.106;21.024;2023-02-07T03:28:09;105.72;;;50.00;;
22030;SDS011;11179;52.106;21.024;2023-02-07T03:30:36;114.60;;;51.63;;
22030;SDS011;11179;52.106;21.024;2023-02-07T03:33:04;102.90;;;48.70;;
22030;SDS011;11179;52.106;21.024;2023-02-07T03:35:41;96.90;;;47.90;;
22030;SDS011;11179;52.106;21.024;2023-02-07T03:38:13;96.68;;;47.67;;
22030;SDS011;11179;52.106;21.024;2023-02-07T03:40:41;96.93;;;48.10;;
22030;SDS011;11179;52.106;21.024;2023-02-07T03:45:41;109.93;;;48.72;;
22030;SDS011;11179;52.106;21.024;2023-02-07T03:48:06;100.33;;;47.63;;
22030;SDS011;11179;52.106;21.024;2023-02-07T03:50:32;101.73;;;47.50;;
22030;SDS011;11179;52.106;21.024;2023-02-07T03:52:57;105.23;;;48.37;;
22030;SDS011;11179;52.106;21.024;2023-02-07T03:55:23;99.90;;;46.80;;
22030;SDS011;11179;52.106;21.024;2023-02-07T03:57:48;94.70;;;46.37;;
22030;SDS011;11179;52.106;21.024;2023-02-07T04:00:13;103.27;;;49.60;;
22030;SDS011;11179;52.106;21.024;2023-02-07T04:02:39;95.93;;;45.37;;
22030;SDS011;11179;52.106;21.024;2023-02-07T04:05:05;104.67;;;48.23;;
22030;SDS011;11179;52.106;21.024;2023-02-07T04:07:31;111.50;;;47.10;;
22030;SDS011;11179;52.106;21.024;2023-02-07T04:09:56;111.13;;;49.10;;
22030;SDS011;11179;52.106;21.024;2023-02-07T04:12:21;111.10;;;55.30;;
22030;SDS011;11179;52.106;21.024;2023-02-07T04:14:47;120.50;;;59.97;;
22030;SDS011;11179;52.106;21.024;2023-02-07T04:17:12;107.30;;;53.57;;
22030;SDS011;11179;52.106;21.024;2023-02-07T04:19:37;106.93;;;51.43;;
22030;SDS011;11179;52.106;21.024;2023-02-07T04:22:02;99.13;;;49.10;;
22030;SDS011;11179;52.106;21.024;2023-02-07T04:24:28;95.13;;;47.87;;
22030;SDS011;11179;52.106;21.024;2023-02-07T04:26:56;94.80;;;45.13;;
22030;SDS011;11179;52.106;21.024;2023-02-07T04:29:22;91.13;;;46.58;;
22030;SDS011;11179;52.106;21.024;2023-02-07T04:31:47;85.30;;;44.43;;
22030;SDS011;11179;52.106;21.024;2023-02-07T04:34:12;91.53;;;45.30;;
22030;SDS011;11179;52.106;21.024;2023-02-07T04:36:38;94.90;;;46.03;;
22030;SDS011;11179;52.106;21.024;2023-02-07T04:39:03;89.70;;;45.20;;
22030;SDS011;11179;52.106;21.024;2023-02-07T04:41:28;91.27;;;44.83;;
22030;SDS011;11179;52.106;21.024;2023-02-07T04:43:54;94.30;;;45.00;;
22030;SDS011;11179;52.106;21.024;2023-02-07T04:46:19;89.30;;;45.40;;
22030;SDS011;11179;52.106;21.024;2023-02-07T04:48:44;92.60;;;45.37;;
22030;SDS011;11179;52.106;21.024;2023-02-07T04:51:10;90.63;;;45.73;;
22030;SDS011;11179;52.106;21.024;2023-02-07T04:53:35;89.43;;;45.53;;
22030;SDS011;11179;52.106;21.024;2023-02-07T04:56:01;88.83;;;43.40;;
22030;SDS011;11179;52.106;21.024;2023-02-07T04:58:27;88.17;;;43.37;;
22030;SDS011;11179;52.106;21.024;2023-02-07T05:00:52;94.93;;;43.30;;
22030;SDS011;11179;52.106;21.024;2023-02-07T05:03:18;84.87;;;43.00;;
22030;SDS011;11179;52.106;21.024;2023-02-07T05:05:43;86.63;;;42.30;;
22030;SDS011;11179;52.106;21.024;2023-02-07T05:08:10;89.97;;;43.75;;
22030;SDS011;11179;52.106;21.024;2023-02-07T05:10:36;91.07;;;43.80;;
22030;SDS011;11179;52.106;21.024;2023-02-07T05:13:02;88.25;;;42.08;;
22030;SDS011;11179;52.106;21.024;2023-02-07T05:15:28;83.88;;;43.35;;
22030;SDS011;11179;52.106;21.024;2023-02-07T05:17:54;83.53;;;38.60;;
22030;SDS011;11179;52.106;21.024;2023-02-07T05:20:21;85.15;;;41.08;;
22030;SDS011;11179;52.106;21.024;2023-02-07T05:22:47;76.75;;;39.55;;
22030;SDS011;11179;52.106;21.024;2023-02-07T05:25:12;73.97;;;38.37;;
22030;SDS011;11179;52.106;21.024;2023-02-07T05:27:38;76.43;;;38.03;;
22030;SDS011;11179;52.106;21.024;2023-02-07T05:30:04;79.43;;;38.37;;
22030;SDS011;11179;52.106;21.024;2023-02-07T05:32:30;79.28;;;38.22;;
22030;SDS011;11179;52.106;21.024;2023-02-07T05:35:14;75.70;;;37.55;;
22030;SDS011;11179;52.106;21.024;2023-02-07T05:37:40;69.93;;;36.17;;
22030;SDS011;11179;52.106;21.024;2023-02-07T05:40:05;82.10;;;39.63;;
22030;SDS011;11179;52.106;21.024;2023-02-07T05:42:31;71.87;;;36.27;;
22030;SDS011;11179;52.106;21.024;2023-02-07T05:44:56;74.30;;;36.40;;
22030;SDS011;11179;52.106;21.024;2023-02-07T05:47:22;76.50;;;36.30;;
22030;SDS011;11179;52.106;21.024;2023-02-07T05:49:47;70.10;;;35.33;;
22030;SDS011;11179;52.106;21.024;2023-02-07T05:52:12;63.10;;;33.00;;
22030;SDS011;11179;52.106;21.024;2023-02-07T05:54:38;67.73;;;34.80;;
22030;SDS011;11179;52.106;21.024;2023-02-07T05:57:03;66.90;;;30.67;;
22030;SDS011;11179;52.106;21.024;2023-02-07T05:59:28;66.33;;;31.87;;
22030;SDS011;11179;52.106;21.024;2023-02-07T06:01:54;65.60;;;30.37;;
22030;SDS011;11179;52.106;21.024;2023-02-07T06:04:19;62.80;;;30.67;;
22030;SDS011;11179;52.106;21.024;2023-02-07T06:06:44;59.83;;;29.50;;
22030;SDS011;11179;52.106;21.024;2023-02-07T06:09:10;59.13;;;28.77;;
22030;SDS011;11179;52.106;21.024;2023-02-07T06:11:35;57.47;;;28.10;;
22030;SDS011;11179;52.106;21.024;2023-02-07T06:14:00;58.17;;;27.33;;
22030;SDS011;11179;52.106;21.024;2023-02-07T06:16:26;53.77;;;27.07;;
22030;SDS011;11179;52.106;21.024;2023-02-07T06:18:51;48.23;;;25.30;;
22030;SDS011;11179;52.106;21.024;2023-02-07T06:21:16;50.73;;;26.43;;
22030;SDS011;11179;52.106;21.024;2023-02-07T06:23:42;53.83;;;25.70;;
22030;SDS011;11179;52.106;21.024;2023-02-07T06:26:07;53.37;;;26.50;;
22030;SDS011;11179;52.106;21.024;2023-02-07T06:28:32;54.23;;;24.77;;
22030;SDS011;11179;52.106;21.024;2023-02-07T06:30:58;51.13;;;24.60;;
22030;SDS011;11179;52.106;21.024;2023-02-07T06:33:23;51.07;;;22.17;;
22030;SDS011;11179;52.106;21.024;2023-02-07T06:35:48;51.20;;;24.87;;
22030;SDS011;11179;52.106;21.024;2023-02-07T06:38:14;47.27;;;23.17;;
22030;SDS011;11179;52.106;21.024;2023-02-07T06:40:42;49.17;;;23.15;;
22030;SDS011;11179;52.106;21.024;2023-02-07T06:43:08;49.13;;;22.90;;
22030;SDS011;11179;52.106;21.024;2023-02-07T06:45:35;46.78;;;22.60;;
22030;SDS011;11179;52.106;21.024;2023-02-07T06:48:00;50.07;;;23.33;;
22030;SDS011;11179;52.106;21.024;2023-02-07T06:50:26;44.87;;;22.63;;
22030;SDS011;11179;52.106;21.024;2023-02-07T06:52:51;51.50;;;22.93;;
22030;SDS011;11179;52.106;21.024;2023-02-07T06:55:16;44.37;;;22.53;;
22030;SDS011;11179;52.106;21.024;2023-02-07T06:57:42;53.33;;;23.37;;
22030;SDS011;11179;52.106;21.024;2023-02-07T07:00:07;45.93;;;21.43;;
22030;SDS011;11179;52.106;21.024;2023-02-07T07:02:33;41.05;;;21.58;;
22030;SDS011;11179;52.106;21.024;2023-02-07T07:04:59;45.67;;;22.10;;
22030;SDS011;11179;52.106;21.024;2023-02-07T07:07:24;47.00;;;23.13;;
22030;SDS011;11179;52.106;21.024;2023-02-07T07:09:50;44.27;;;21.43;;
22030;SDS011;11179;52.106;21.024;2023-02-07T07:12:15;44.80;;;21.73;;
22030;SDS011;11179;52.106;21.024;2023-02-07T07:14:40;41.60;;;20.67;;
22030;SDS011;11179;52.106;21.024;2023-02-07T07:17:06;46.87;;;22.07;;
22030;SDS011;11179;52.106;21.024;2023-02-07T07:19:31;43.43;;;21.17;;
22030;SDS011;11179;52.106;21.024;2023-02-07T07:21:56;43.50;;;21.73;;
22030;SDS011;11179;52.106;21.024;2023-02-07T07:24:23;46.40;;;21.58;;
22030;SDS011;11179;52.106;21.024;2023-02-07T07:26:48;44.93;;;22.83;;
22030;SDS011;11179;52.106;21.024;2023-02-07T07:29:14;48.10;;;21.60;;
22030;SDS011;11179;52.106;21.024;2023-02-07T07:31:39;47.47;;;20.20;;
22030;SDS011;11179;52.106;21.024;2023-02-07T07:34:05;57.87;;;20.90;;
22030;SDS011;11179;52.106;21.024;2023-02-07T07:36:30;49.23;;;21.73;;
22030;SDS011;11179;52.106;21.024;2023-02-07T07:38:55;44.20;;;21.23;;
22030;SDS011;11179;52.106;21.024;2023-02-07T07:41:20;41.93;;;20.60;;
22030;SDS011;11179;52.106;21.024;2023-02-07T07:43:47;51.83;;;21.23;;
22030;SDS011;11179;52.106;21.024;2023-02-07T07:46:12;54.93;;;23.90;;
22030;SDS011;11179;52.106;21.024;2023-02-07T07:48:38;54.43;;;23.40;;
22030;SDS011;11179;52.106;21.024;2023-02-07T07:51:03;42.47;;;21.17;;
22030;SDS011;11179;52.106;21.024;2023-02-07T07:53:29;43.20;;;21.63;;
22030;SDS011;11179;52.106;21.024;2023-02-07T07:55:55;46.57;;;21.37;;
22030;SDS011;11179;52.106;21.024;2023-02-07T07:58:21;43.38;;;21.42;;
22030;SDS011;11179;52.106;21.024;2023-02-07T08:00:48;54.33;;;23.33;;
22030;SDS011;11179;52.106;21.024;2023-02-07T08:03:14;49.63;;;21.97;;
22030;SDS011;11179;52.106;21.024;2023-02-07T08:05:43;49.95;;;22.02;;
22030;SDS011;11179;52.106;21.024;2023-02-07T08:08:10;48.03;;;21.85;;
22030;SDS011;11179;52.106;21.024;2023-02-07T08:10:37;45.47;;;21.13;;
22030;SDS011;11179;52.106;21.024;2023-02-07T08:13:03;45.50;;;23.35;;
22030;SDS011;11179;52.106;21.024;2023-02-07T08:15:29;51.42;;;21.42;;
22030;SDS011;11179;52.106;21.024;2023-02-07T08:17:54;43.87;;;23.00;;
22030;SDS011;11179;52.106;21.024;2023-02-07T08:20:20;47.80;;;23.07;;
22030;SDS011;11179;52.106;21.024;2023-02-07T08:22:45;46.63;;;21.43;;
22030;SDS011;11179;52.106;21.024;2023-02-07T08:25:11;49.87;;;23.30;;
22030;SDS011;11179;52.106;21.024;2023-02-07T08:27:36;52.50;;;22.57;;
22030;SDS011;11179;52.106;21.024;2023-02-07T08:30:02;43.90;;;21.20;;
22030;SDS011;11179;52.106;21.024;2023-02-07T08:32:29;51.63;;;22.45;;
22030;SDS011;11179;52.106;21.024;2023-02-07T08:34:54;40.60;;;20.80;;
22030;SDS011;11179;52.106;21.024;2023-02-07T08:37:20;43.90;;;20.53;;
22030;SDS011;11179;52.106;21.024;2023-02-07T08:39:46;49.92;;;21.92;;
22030;SDS011;11179;52.106;21.024;2023-02-07T08:42:12;44.70;;;22.33;;
22030;SDS011;11179;52.106;21.024;2023-02-07T08:44:37;49.70;;;24.20;;
22030;SDS011;11179;52.106;21.024;2023-02-07T08:47:02;51.73;;;22.33;;
22030;SDS011;11179;52.106;21.024;2023-02-07T08:49:28;46.50;;;22.13;;
22030;SDS011;11179;52.106;21.024;2023-02-07T08:51:54;53.50;;;22.67;;
22030;SDS011;11179;52.106;21.024;2023-02-07T08:54:20;45.83;;;22.57;;
22030;SDS011;11179;52.106;21.024;2023-02-07T08:56:45;47.93;;;21.53;;
22030;SDS011;11179;52.106;21.024;2023-02-07T08:59:11;49.53;;;24.43;;
22030;SDS011;11179;52.106;21.024;2023-02-07T09:01:36;48.23;;;21.10;;
22030;SDS011;11179;52.106;21.024;2023-02-07T09:04:01;42.30;;;20.33;;
22030;SDS011;11179;52.106;21.024;2023-02-07T09:06:27;46.17;;;20.47;;
22030;SDS011;11179;52.106;21.024;2023-02-07T09:08:52;44.00;;;20.77;;
22030;SDS011;11179;52.106;21.024;2023-02-07T09:11:18;42.30;;;20.70;;
22030;SDS011;11179;52.106;21.024;2023-02-07T09:13:44;42.37;;;20.50;;
22030;SDS011;11179;52.106;21.024;2023-02-07T09:16:11;37.15;;;18.95;;
22030;SDS011;11179;52.106;21.024;2023-02-07T09:18:37;50.00;;;21.08;;
22030;SDS011;11179;52.106;21.024;2023-02-07T09:21:03;45.10;;;19.50;;
22030;SDS011;11179;52.106;21.024;2023-02-07T09:23:29;37.13;;;19.40;;
22030;SDS011;11179;52.106;21.024;2023-02-07T09:25:58;35.92;;;19.25;;
22030;SDS011;11179;52.106;21.024;2023-02-07T09:28:25;38.30;;;18.70;;
22030;SDS011;11179;52.106;21.024;2023-02-07T09:30:50;39.97;;;17.83;;
22030;SDS011;11179;52.106;21.024;2023-02-07T09:33:16;37.60;;;18.90;;
22030;SDS011;11179;52.106;21.024;2023-02-07T09:35:42;40.37;;;18.40;;
22030;SDS011;11179;52.106;21.024;2023-02-07T09:38:18;40.85;;;20.08;;
22030;SDS011;11179;52.106;21.024;2023-02-07T09:40:45;38.67;;;18.50;;
22030;SDS011;11179;52.106;21.024;2023-02-07T09:43:16;38.95;;;20.70;;
22030;SDS011;11179;52.106;21.024;2023-02-07T09:45:55;39.85;;;20.13;;
22030;SDS011;11179;52.106;21.024;2023-02-07T09:48:47;44.10;;;20.65;;
22030;SDS011;11179;52.106;21.024;2023-02-07T09:51:16;42.22;;;18.63;;
22030;SDS011;11179;52.106;21.024;2023-02-07T09:53:46;41.38;;;20.55;;
22030;SDS011;11179;52.106;21.024;2023-02-07T09:56:18;38.75;;;18.83;;
22030;SDS011;11179;52.106;21.024;2023-02-07T09:58:50;42.25;;;20.02;;
22030;SDS011;11179;52.106;21.024;2023-02-07T10:01:23;37.63;;;19.40;;
22030;SDS011;11179;52.106;21.024;2023-02-07T10:06:32;36.10;;;17.27;;
22030;SDS011;11179;52.106;21.024;2023-02-07T10:08:59;44.25;;;16.85;;
22030;SDS011;11179;52.106;21.024;2023-02-07T10:11:34;33.23;;;16.40;;
22030;SDS011;11179;52.106;21.024;2023-02-07T10:19:50;37.65;;;17.52;;
22030;SDS011;11179;52.106;21.024;2023-02-07T10:22:35;33.58;;;17.75;;
22030;SDS011;11179;52.106;21.024;2023-02-07T10:25:33;31.55;;;15.98;;
22030;SDS011;11179;52.106;21.024;2023-02-07T10:30:42;35.00;;;16.52;;
22030;SDS011;11179;52.106;21.024;2023-02-07T10:33:15;40.60;;;18.25;;
22030;SDS011;11179;52.106;21.024;2023-02-07T10:35:43;35.00;;;15.95;;
22030;SDS011;11179;52.106;21.024;2023-02-07T10:38:11;35.50;;;15.65;;
22030;SDS011;11179;52.106;21.024;2023-02-07T10:41:01;33.15;;;15.80;;
22030;SDS011;11179;52.106;21.024;2023-02-07T10:43:33;35.67;;;14.80;;
22030;SDS011;11179;52.106;21.024;2023-02-07T10:46:02;31.25;;;15.38;;
22030;SDS011;11179;52.106;21.024;2023-02-07T10:48:30;48.55;;;17.88;;
22030;SDS011;11179;52.106;21.024;2023-02-07T10:50:56;46.45;;;18.02;;
22030;SDS011;11179;52.106;21.024;2023-02-07T10:56:19;36.08;;;15.77;;
22030;SDS011;11179;52.106;21.024;2023-02-07T10:58:50;55.72;;;21.08;;
22030;SDS011;11179;52.106;21.024;2023-02-07T11:01:20;34.13;;;16.47;;
22030;SDS011;11179;52.106;21.024;2023-02-07T11:03:48;37.00;;;16.37;;
22030;SDS011;11179;52.106;21.024;2023-02-07T11:06:15;37.55;;;15.45;;
22030;SDS011;11179;52.106;21.024;2023-02-07T11:08:48;38.03;;;14.77;;
22030;SDS011;11179;52.106;21.024;2023-02-07T11:13:54;36.17;;;15.03;;
22030;SDS011;11179;52.106;21.024;2023-02-07T11:16:27;41.43;;;16.60;;
22030;SDS011;11179;52.106;21.024;2023-02-07T11:19:00;39.83;;;16.40;;
22030;SDS011;11179;52.106;21.024;2023-02-07T11:24:12;33.30;;;15.67;;
22030;SDS011;11179;52.106;21.024;2023-02-07T11:26:52;34.03;;;14.50;;
22030;SDS011;11179;52.106;21.024;2023-02-07T11:29:18;37.47;;;15.10;;
22030;SDS011;11179;52.106;21.024;2023-02-07T11:31:47;36.40;;;15.77;;
22030;SDS011;11179;52.106;21.024;2023-02-07T11:36:51;30.40;;;14.70;;
22030;SDS011;11179;52.106;21.024;2023-02-07T11:39:21;36.03;;;15.17;;
22030;SDS011;11179;52.106;21.024;2023-02-07T11:41:56;29.33;;;13.53;;
22030;SDS011;11179;52.106;21.024;2023-02-07T11:44:26;27.07;;;14.10;;
22030;SDS011;11179;52.106;21.024;2023-02-07T11:46:53;33.77;;;15.17;;
22030;SDS011;11179;52.106;21.024;2023-02-07T11:49:27;31.37;;;14.93;;
22030;SDS011;11179;52.106;21.024;2023-02-07T11:51:59;30.30;;;14.50;;
22030;SDS011;11179;52.106;21.024;2023-02-07T11:54:27;32.37;;;14.03;;
22030;SDS011;11179;52.106;21.024;2023-02-07T11:57:11;29.73;;;14.97;;
22030;SDS011;11179;52.106;21.024;2023-02-07T11:59:44;36.93;;;15.07;;
22030;SDS011;11179;52.106;21.024;2023-02-07T12:02:18;29.75;;;13.40;;
22030;SDS011;11179;52.106;21.024;2023-02-07T12:04:47;29.03;;;13.97;;
22030;SDS011;11179;52.106;21.024;2023-02-07T12:09:46;27.20;;;12.43;;
22030;SDS011;11179;52.106;21.024;2023-02-07T12:12:22;27.20;;;13.87;;
22030;SDS011;11179;52.106;21.024;2023-02-07T12:14:52;34.77;;;14.77;;
22030;SDS011;11179;52.106;21.024;2023-02-07T12:17:23;22.17;;;11.63;;
22030;SDS011;11179;52.106;21.024;2023-02-07T12:19:55;31.43;;;12.93;;
22030;SDS011;11179;52.106;21.024;2023-02-07T12:22:29;31.20;;;13.63;;
22030;SDS011;11179;52.106;21.024;2023-02-07T12:27:49;32.47;;;13.88;;
22030;SDS011;11179;52.106;21.024;2023-02-07T12:30:36;27.73;;;13.13;;
22030;SDS011;11179;52.106;21.024;2023-02-07T12:39:02;28.73;;;14.47;;
22030;SDS011;11179;52.106;21.024;2023-02-07T12:41:43;28.95;;;14.02;;
22030;SDS011;11179;52.106;21.024;2023-02-07T12:46:45;31.23;;;13.43;;
22030;SDS011;11179;52.106;21.024;2023-02-07T12:55:29;24.80;;;13.20;;
22030;SDS011;11179;52.106;21.024;2023-02-07T12:57:32;30.53;;;14.47;;
22030;SDS011;11179;52.106;21.024;2023-02-07T13:00:10;24.67;;;14.00;;
22030;SDS011;11179;52.106;21.024;2023-02-07T13:05:40;28.25;;;14.00;;
22030;SDS011;11179;52.106;21.024;2023-02-07T13:16:28;27.83;;;13.50;;
22030;SDS011;11179;52.106;21.024;2023-02-07T13:24:45;33.63;;;15.00;;
22030;SDS011;11179;52.106;21.024;2023-02-07T13:27:15;34.00;;;13.85;;
22030;SDS011;11179;52.106;21.024;2023-02-07T13:29:44;33.83;;;14.37;;
22030;SDS011;11179;52.106;21.024;2023-02-07T13:32:18;32.65;;;14.40;;
22030;SDS011;11179;52.106;21.024;2023-02-07T13:34:54;28.20;;;13.77;;
22030;SDS011;11179;52.106;21.024;2023-02-07T13:37:40;27.17;;;13.20;;
22030;SDS011;11179;52.106;21.024;2023-02-07T13:48:57;26.55;;;13.05;;
22030;SDS011;11179;52.106;21.024;2023-02-07T13:56:59;29.00;;;14.30;;
22030;SDS011;11179;52.106;21.024;2023-02-07T14:00:03;30.73;;;14.27;;
22030;SDS011;11179;52.106;21.024;2023-02-07T14:02:45;32.13;;;13.55;;
22030;SDS011;11179;52.106;21.024;2023-02-07T14:05:23;30.83;;;14.97;;
22030;SDS011;11179;52.106;21.024;2023-02-07T14:07:56;28.40;;;14.50;;
22030;SDS011;11179;52.106;21.024;2023-02-07T14:10:34;28.75;;;14.35;;
22030;SDS011;11179;52.106;21.024;2023-02-07T14:13:04;34.47;;;15.90;;
22030;SDS011;11179;52.106;21.024;2023-02-07T14:17:56;29.17;;;14.23;;
22030;SDS011;11179;52.106;21.024;2023-02-07T14:25:37;29.90;;;15.50;;
22030;SDS011;11179;52.106;21.024;2023-02-07T14:30:37;32.40;;;15.17;;
22030;SDS011;11179;52.106;21.024;2023-02-07T14:33:35;45.17;;;19.88;;
22030;SDS011;11179;52.106;21.024;2023-02-07T14:41:23;34.42;;;16.00;;
22030;SDS011;11179;52.106;21.024;2023-02-07T14:43:54;37.13;;;15.77;;
22030;SDS011;11179;52.106;21.024;2023-02-07T14:46:41;30.70;;;16.50;;
22030;SDS011;11179;52.106;21.024;2023-02-07T14:52:02;38.10;;;17.30;;
22030;SDS011;11179;52.106;21.024;2023-02-07T14:54:42;32.87;;;16.60;;
22030;SDS011;11179;52.106;21.024;2023-02-07T15:02:39;34.70;;;16.73;;
22030;SDS011;11179;52.106;21.024;2023-02-07T15:05:23;37.97;;;17.17;;
22030;SDS011;11179;52.106;21.024;2023-02-07T15:07:55;31.63;;;16.77;;
22030;SDS011;11179;52.106;21.024;2023-02-07T15:10:33;31.52;;;16.05;;
22030;SDS011;11179;52.106;21.024;2023-02-07T15:13:05;39.67;;;16.92;;
22030;SDS011;11179;52.106;21.024;2023-02-07T15:18:20;38.50;;;18.47;;
22030;SDS011;11179;52.106;21.024;2023-02-07T15:20:48;42.77;;;20.20;;
22030;SDS011;11179;52.106;21.024;2023-02-07T15:23:16;44.55;;;18.80;;
22030;SDS011;11179;52.106;21.024;2023-02-07T15:25:42;45.27;;;20.53;;
22030;SDS011;11179;52.106;21.024;2023-02-07T15:31:01;38.10;;;19.38;;
22030;SDS011;11179;52.106;21.024;2023-02-07T15:33:40;33.25;;;15.98;;
22030;SDS011;11179;52.106;21.024;2023-02-07T15:39:05;44.13;;;19.67;;
22030;SDS011;11179;52.106;21.024;2023-02-07T15:41:32;34.72;;;17.88;;
22030;SDS011;11179;52.106;21.024;2023-02-07T15:44:17;42.17;;;19.20;;
22030;SDS011;11179;52.106;21.024;2023-02-07T15:49:25;40.28;;;17.70;;
22030;SDS011;11179;52.106;21.024;2023-02-07T15:52:42;43.13;;;20.00;;
22030;SDS011;11179;52.106;21.024;2023-02-07T15:54:57;40.65;;;18.52;;
22030;SDS011;11179;52.106;21.024;2023-02-07T15:57:27;32.28;;;17.65;;
22030;SDS011;11179;52.106;21.024;2023-02-07T15:59:59;41.43;;;19.57;;
22030;SDS011;11179;52.106;21.024;2023-02-07T16:02:28;35.43;;;17.80;;
22030;SDS011;11179;52.106;21.024;2023-02-07T16:04:57;32.83;;;16.70;;
22030;SDS011;11179;52.106;21.024;2023-02-07T16:07:23;37.95;;;16.65;;
22030;SDS011;11179;52.106;21.024;2023-02-07T16:09:49;33.57;;;16.20;;
22030;SDS011;11179;52.106;21.024;2023-02-07T16:15:28;38.10;;;18.63;;
22030;SDS011;11179;52.106;21.024;2023-02-07T16:17:58;44.70;;;20.30;;
22030;SDS011;11179;52.106;21.024;2023-02-07T16:20:25;41.00;;;20.52;;
22030;SDS011;11179;52.106;21.024;2023-02-07T16:22:53;44.03;;;19.00;;
22030;SDS011;11179;52.106;21.024;2023-02-07T16:25:21;41.10;;;19.45;;
22030;SDS011;11179;52.106;21.024;2023-02-07T16:27:50;37.20;;;18.27;;
22030;SDS011;11179;52.106;21.024;2023-02-07T16:30:21;34.53;;;18.10;;
22030;SDS011;11179;52.106;21.024;2023-02-07T16:32:49;36.33;;;18.88;;
22030;SDS011;11179;52.106;21.024;2023-02-07T16:35:18;41.13;;;18.93;;
22030;SDS011;11179;52.106;21.024;2023-02-07T16:37:45;38.45;;;18.83;;
22030;SDS011;11179;52.106;21.024;2023-02-07T16:40:11;40.30;;;19.00;;
22030;SDS011;11179;52.106;21.024;2023-02-07T16:42:37;43.10;;;20.00;;